sensor_id;sensor_type;location;lat;lon;timestamp;P1;durP1;ratioP1;P2;durP2;ratioP2
75894;SDS011;64573;50.328;15.014;2023-04-29T00:02:17;18.95;;;11.98;;
75894;SDS011;64573;50.328;15.014;2023-04-29T00:04:42;23.08;;;11.90;;
75894;SDS011;64573;50.328;15.014;2023-04-29T00:07:08;24.63;;;12.30;;
75894;SDS011;64573;50.328;15.014;2023-04-29T00:09:33;20.88;;;12.07;;
75894;SDS011;64573;50.328;15.014;2023-04-29T00:11:59;19.60;;;12.13;;
75894;SDS011;64573;50.328;15.014;2023-04-29T00:14:24;20.05;;;11.35;;
75894;SDS011;64573;50.328;15.014;2023-04-29T00:16:50;20.50;;;12.23;;
75894;SDS011;64573;50.328;15.014;2023-04-29T00:19:16;19.85;;;12.93;;
75894;SDS011;64573;50.328;15.014;2023-04-29T00:21:42;18.88;;;11.70;;
75894;SDS011;64573;50.328;15.014;2023-04-29T00:24:07;18.35;;;11.65;;
75894;SDS011;64573;50.328;15.014;2023-04-29T00:26:33;21.20;;;11.80;;
75894;SDS011;64573;50.328;15.014;2023-04-29T00:28:58;21.08;;;11.98;;
75894;SDS011;64573;50.328;15.014;2023-04-29T00:31:24;23.50;;;12.68;;
75894;SDS011;64573;50.328;15.014;2023-04-29T00:33:50;22.63;;;13.05;;
75894;SDS011;64573;50.328;15.014;2023-04-29T00:36:15;19.83;;;13.20;;
75894;SDS011;64573;50.328;15.014;2023-04-29T00:38:40;22.45;;;12.50;;
75894;SDS011;64573;50.328;15.014;2023-04-29T00:41:06;21.00;;;12.60;;
75894;SDS011;64573;50.328;15.014;2023-04-29T00:43:31;20.92;;;13.05;;
75894;SDS011;64573;50.328;15.014;2023-04-29T00:45:56;22.63;;;12.70;;
75894;SDS011;64573;50.328;15.014;2023-04-29T00:48:22;22.33;;;12.68;;
75894;SDS011;64573;50.328;15.014;2023-04-29T00:50:47;22.13;;;12.65;;
75894;SDS011;64573;50.328;15.014;2023-04-29T00:53:12;23.25;;;12.45;;
75894;SDS011;64573;50.328;15.014;2023-04-29T00:55:39;17.55;;;12.10;;
75894;SDS011;64573;50.328;15.014;2023-04-29T00:58:06;20.67;;;12.73;;
75894;SDS011;64573;50.328;15.014;2023-04-29T01:00:33;20.55;;;12.57;;
75894;SDS011;64573;50.328;15.014;2023-04-29T01:02:59;20.90;;;12.23;;
75894;SDS011;64573;50.328;15.014;2023-04-29T01:05:24;21.95;;;12.10;;
75894;SDS011;64573;50.328;15.014;2023-04-29T01:11:07;25.70;;;12.13;;
75894;SDS011;64573;50.328;15.014;2023-04-29T01:13:53;18.92;;;12.15;;
75894;SDS011;64573;50.328;15.014;2023-04-29T01:16:28;18.27;;;12.07;;
75894;SDS011;64573;50.328;15.014;2023-04-29T01:19:01;19.40;;;11.98;;
75894;SDS011;64573;50.328;15.014;2023-04-29T01:21:49;22.70;;;12.43;;
75894;SDS011;64573;50.328;15.014;2023-04-29T01:24:14;20.00;;;12.82;;
75894;SDS011;64573;50.328;15.014;2023-04-29T01:26:45;20.75;;;12.77;;
75894;SDS011;64573;50.328;15.014;2023-04-29T01:32:08;18.33;;;11.65;;
75894;SDS011;64573;50.328;15.014;2023-04-29T01:34:42;23.27;;;13.00;;
75894;SDS011;64573;50.328;15.014;2023-04-29T01:37:17;23.60;;;12.95;;
75894;SDS011;64573;50.328;15.014;2023-04-29T01:42:45;21.20;;;12.40;;
75894;SDS011;64573;50.328;15.014;2023-04-29T01:45:16;23.65;;;12.32;;
75894;SDS011;64573;50.328;15.014;2023-04-29T01:47:44;23.45;;;12.48;;
75894;SDS011;64573;50.328;15.014;2023-04-29T01:50:11;16.45;;;11.00;;
75894;SDS011;64573;50.328;15.014;2023-04-29T01:52:36;20.67;;;11.77;;
75894;SDS011;64573;50.328;15.014;2023-04-29T01:55:02;19.90;;;11.93;;
75894;SDS011;64573;50.328;15.014;2023-04-29T01:57:28;21.80;;;12.20;;
75894;SDS011;64573;50.328;15.014;2023-04-29T01:59:53;18.92;;;12.93;;
75894;SDS011;64573;50.328;15.014;2023-04-29T02:02:19;20.17;;;12.52;;
75894;SDS011;64573;50.328;15.014;2023-04-29T02:04:47;20.13;;;12.30;;
75894;SDS011;64573;50.328;15.014;2023-04-29T02:07:14;21.25;;;13.40;;
75894;SDS011;64573;50.328;15.014;2023-04-29T02:09:40;19.90;;;13.10;;
75894;SDS011;64573;50.328;15.014;2023-04-29T02:12:05;21.33;;;14.10;;
75894;SDS011;64573;50.328;15.014;2023-04-29T02:14:31;21.92;;;14.43;;
75894;SDS011;64573;50.328;15.014;2023-04-29T02:16:58;25.77;;;14.48;;
75894;SDS011;64573;50.328;15.014;2023-04-29T02:19:24;24.85;;;14.40;;
75894;SDS011;64573;50.328;15.014;2023-04-29T02:21:49;23.10;;;14.32;;
75894;SDS011;64573;50.328;15.014;2023-04-29T02:24:15;25.45;;;14.60;;
75894;SDS011;64573;50.328;15.014;2023-04-29T02:26:40;24.30;;;14.55;;
75894;SDS011;64573;50.328;15.014;2023-04-29T02:29:05;25.70;;;15.73;;
75894;SDS011;64573;50.328;15.014;2023-04-29T02:31:31;26.77;;;15.55;;
75894;SDS011;64573;50.328;15.014;2023-04-29T02:33:56;26.13;;;15.38;;
75894;SDS011;64573;50.328;15.014;2023-04-29T02:36:22;24.30;;;15.80;;
75894;SDS011;64573;50.328;15.014;2023-04-29T02:38:48;25.60;;;15.38;;
75894;SDS011;64573;50.328;15.014;2023-04-29T02:41:17;24.02;;;14.73;;
75894;SDS011;64573;50.328;15.014;2023-04-29T02:43:42;27.35;;;15.80;;
75894;SDS011;64573;50.328;15.014;2023-04-29T02:46:08;26.17;;;14.75;;
75894;SDS011;64573;50.328;15.014;2023-04-29T02:48:34;26.48;;;15.73;;
75894;SDS011;64573;50.328;15.014;2023-04-29T02:51:00;28.05;;;15.57;;
75894;SDS011;64573;50.328;15.014;2023-04-29T02:53:26;27.02;;;16.08;;
75894;SDS011;64573;50.328;15.014;2023-04-29T02:55:51;27.23;;;15.75;;
75894;SDS011;64573;50.328;15.014;2023-04-29T02:58:16;21.23;;;14.27;;
75894;SDS011;64573;50.328;15.014;2023-04-29T03:00:42;22.98;;;14.20;;
75894;SDS011;64573;50.328;15.014;2023-04-29T03:03:08;25.58;;;15.65;;
75894;SDS011;64573;50.328;15.014;2023-04-29T03:05:33;26.83;;;14.77;;
75894;SDS011;64573;50.328;15.014;2023-04-29T03:07:59;27.20;;;15.32;;
75894;SDS011;64573;50.328;15.014;2023-04-29T03:10:24;26.75;;;15.18;;
75894;SDS011;64573;50.328;15.014;2023-04-29T03:12:50;25.15;;;15.80;;
75894;SDS011;64573;50.328;15.014;2023-04-29T03:15:15;26.48;;;15.52;;
75894;SDS011;64573;50.328;15.014;2023-04-29T03:17:41;26.13;;;15.77;;
75894;SDS011;64573;50.328;15.014;2023-04-29T03:20:06;23.27;;;15.02;;
75894;SDS011;64573;50.328;15.014;2023-04-29T03:22:34;28.13;;;15.68;;
75894;SDS011;64573;50.328;15.014;2023-04-29T03:25:00;26.45;;;15.02;;
75894;SDS011;64573;50.328;15.014;2023-04-29T03:27:25;25.02;;;16.30;;
75894;SDS011;64573;50.328;15.014;2023-04-29T03:29:51;23.08;;;15.15;;
75894;SDS011;64573;50.328;15.014;2023-04-29T03:32:16;23.52;;;15.10;;
75894;SDS011;64573;50.328;15.014;2023-04-29T03:34:42;24.08;;;15.15;;
75894;SDS011;64573;50.328;15.014;2023-04-29T03:37:07;23.65;;;14.90;;
75894;SDS011;64573;50.328;15.014;2023-04-29T03:39:32;25.17;;;15.95;;
75894;SDS011;64573;50.328;15.014;2023-04-29T03:41:57;25.52;;;14.55;;
75894;SDS011;64573;50.328;15.014;2023-04-29T03:44:24;24.20;;;16.23;;
75894;SDS011;64573;50.328;15.014;2023-04-29T03:46:50;24.98;;;15.00;;
75894;SDS011;64573;50.328;15.014;2023-04-29T03:49:15;26.50;;;15.57;;
75894;SDS011;64573;50.328;15.014;2023-04-29T03:51:41;28.52;;;16.30;;
75894;SDS011;64573;50.328;15.014;2023-04-29T03:54:09;23.45;;;15.93;;
75894;SDS011;64573;50.328;15.014;2023-04-29T03:56:34;25.50;;;15.43;;
75894;SDS011;64573;50.328;15.014;2023-04-29T03:58:59;24.83;;;16.20;;
75894;SDS011;64573;50.328;15.014;2023-04-29T04:01:25;27.67;;;17.10;;
75894;SDS011;64573;50.328;15.014;2023-04-29T04:03:50;32.38;;;18.23;;
75894;SDS011;64573;50.328;15.014;2023-04-29T04:06:16;37.67;;;19.70;;
75894;SDS011;64573;50.328;15.014;2023-04-29T04:08:41;31.75;;;19.15;;
75894;SDS011;64573;50.328;15.014;2023-04-29T04:11:06;41.35;;;23.13;;
75894;SDS011;64573;50.328;15.014;2023-04-29T04:13:33;46.63;;;26.15;;
75894;SDS011;64573;50.328;15.014;2023-04-29T04:15:59;43.28;;;25.05;;
75894;SDS011;64573;50.328;15.014;2023-04-29T04:18:24;44.20;;;24.58;;
75894;SDS011;64573;50.328;15.014;2023-04-29T04:20:50;51.00;;;27.85;;
75894;SDS011;64573;50.328;15.014;2023-04-29T04:23:15;53.72;;;27.67;;
75894;SDS011;64573;50.328;15.014;2023-04-29T04:25:44;53.42;;;27.10;;
75894;SDS011;64573;50.328;15.014;2023-04-29T04:28:10;46.22;;;26.15;;
75894;SDS011;64573;50.328;15.014;2023-04-29T04:30:36;45.08;;;24.58;;
75894;SDS011;64573;50.328;15.014;2023-04-29T04:33:01;44.22;;;25.38;;
75894;SDS011;64573;50.328;15.014;2023-04-29T04:35:26;47.38;;;25.70;;
75894;SDS011;64573;50.328;15.014;2023-04-29T04:37:52;45.97;;;26.33;;
75894;SDS011;64573;50.328;15.014;2023-04-29T04:40:17;50.22;;;25.52;;
75894;SDS011;64573;50.328;15.014;2023-04-29T04:42:43;47.70;;;26.38;;
75894;SDS011;64573;50.328;15.014;2023-04-29T04:45:08;45.88;;;25.00;;
75894;SDS011;64573;50.328;15.014;2023-04-29T04:47:35;43.90;;;24.77;;
75894;SDS011;64573;50.328;15.014;2023-04-29T04:50:01;42.90;;;24.65;;
75894;SDS011;64573;50.328;15.014;2023-04-29T04:52:28;48.88;;;27.13;;
75894;SDS011;64573;50.328;15.014;2023-04-29T04:54:53;52.08;;;26.15;;
75894;SDS011;64573;50.328;15.014;2023-04-29T04:57:19;40.60;;;23.92;;
75894;SDS011;64573;50.328;15.014;2023-04-29T04:59:44;44.55;;;23.13;;
75894;SDS011;64573;50.328;15.014;2023-04-29T05:02:10;42.10;;;23.38;;
75894;SDS011;64573;50.328;15.014;2023-04-29T05:04:35;39.95;;;22.60;;
75894;SDS011;64573;50.328;15.014;2023-04-29T05:07:01;42.47;;;22.95;;
75894;SDS011;64573;50.328;15.014;2023-04-29T05:09:26;43.55;;;22.15;;
75894;SDS011;64573;50.328;15.014;2023-04-29T05:11:52;42.00;;;23.42;;
75894;SDS011;64573;50.328;15.014;2023-04-29T05:14:18;44.15;;;23.95;;
75894;SDS011;64573;50.328;15.014;2023-04-29T05:16:43;41.47;;;23.75;;
75894;SDS011;64573;50.328;15.014;2023-04-29T05:19:10;40.55;;;22.98;;
75894;SDS011;64573;50.328;15.014;2023-04-29T05:21:36;37.55;;;22.92;;
75894;SDS011;64573;50.328;15.014;2023-04-29T05:24:01;37.20;;;22.15;;
75894;SDS011;64573;50.328;15.014;2023-04-29T05:26:27;40.85;;;22.63;;
75894;SDS011;64573;50.328;15.014;2023-04-29T05:28:52;38.90;;;23.13;;
75894;SDS011;64573;50.328;15.014;2023-04-29T05:31:19;43.08;;;25.08;;
75894;SDS011;64573;50.328;15.014;2023-04-29T05:33:45;39.42;;;23.55;;
75894;SDS011;64573;50.328;15.014;2023-04-29T05:36:10;47.10;;;25.60;;
75894;SDS011;64573;50.328;15.014;2023-04-29T05:38:35;41.50;;;23.15;;
75894;SDS011;64573;50.328;15.014;2023-04-29T05:41:01;34.55;;;21.73;;
75894;SDS011;64573;50.328;15.014;2023-04-29T05:43:27;31.52;;;20.40;;
75894;SDS011;64573;50.328;15.014;2023-04-29T05:45:53;37.63;;;21.05;;
75894;SDS011;64573;50.328;15.014;2023-04-29T05:48:18;26.80;;;17.05;;
75894;SDS011;64573;50.328;15.014;2023-04-29T05:50:44;25.25;;;16.40;;
75894;SDS011;64573;50.328;15.014;2023-04-29T05:53:09;24.15;;;15.02;;
75894;SDS011;64573;50.328;15.014;2023-04-29T05:55:35;25.05;;;15.75;;
75894;SDS011;64573;50.328;15.014;2023-04-29T05:58:00;26.92;;;14.50;;
75894;SDS011;64573;50.328;15.014;2023-04-29T06:00:26;27.73;;;15.50;;
75894;SDS011;64573;50.328;15.014;2023-04-29T06:02:51;23.50;;;14.75;;
75894;SDS011;64573;50.328;15.014;2023-04-29T06:05:16;23.50;;;14.45;;
75894;SDS011;64573;50.328;15.014;2023-04-29T06:07:42;25.25;;;15.65;;
75894;SDS011;64573;50.328;15.014;2023-04-29T06:10:08;22.02;;;15.30;;
75894;SDS011;64573;50.328;15.014;2023-04-29T06:12:34;23.58;;;15.68;;
75894;SDS011;64573;50.328;15.014;2023-04-29T06:15:00;26.58;;;16.15;;
75894;SDS011;64573;50.328;15.014;2023-04-29T06:17:25;24.73;;;16.17;;
75894;SDS011;64573;50.328;15.014;2023-04-29T06:19:53;26.65;;;16.00;;
75894;SDS011;64573;50.328;15.014;2023-04-29T06:22:19;23.80;;;16.33;;
75894;SDS011;64573;50.328;15.014;2023-04-29T06:24:44;26.73;;;16.25;;
75894;SDS011;64573;50.328;15.014;2023-04-29T06:27:11;28.23;;;16.67;;
75894;SDS011;64573;50.328;15.014;2023-04-29T06:29:36;26.17;;;17.17;;
75894;SDS011;64573;50.328;15.014;2023-04-29T06:32:02;25.45;;;15.85;;
75894;SDS011;64573;50.328;15.014;2023-04-29T06:34:27;26.80;;;14.77;;
75894;SDS011;64573;50.328;15.014;2023-04-29T06:36:53;21.83;;;14.10;;
75894;SDS011;64573;50.328;15.014;2023-04-29T06:39:18;20.10;;;13.68;;
75894;SDS011;64573;50.328;15.014;2023-04-29T06:41:43;21.70;;;14.07;;
75894;SDS011;64573;50.328;15.014;2023-04-29T06:44:08;21.63;;;13.70;;
75894;SDS011;64573;50.328;15.014;2023-04-29T06:46:34;20.95;;;14.05;;
75894;SDS011;64573;50.328;15.014;2023-04-29T06:48:59;21.48;;;13.65;;
75894;SDS011;64573;50.328;15.014;2023-04-29T06:51:25;21.70;;;13.60;;
75894;SDS011;64573;50.328;15.014;2023-04-29T06:53:51;18.60;;;12.45;;
75894;SDS011;64573;50.328;15.014;2023-04-29T06:56:17;19.80;;;12.93;;
75894;SDS011;64573;50.328;15.014;2023-04-29T06:58:42;20.17;;;13.00;;
75894;SDS011;64573;50.328;15.014;2023-04-29T07:01:08;18.65;;;12.93;;
75894;SDS011;64573;50.328;15.014;2023-04-29T07:03:34;24.08;;;13.40;;
75894;SDS011;64573;50.328;15.014;2023-04-29T07:06:00;163.82;;;86.43;;
75894;SDS011;64573;50.328;15.014;2023-04-29T07:08:26;25.60;;;17.25;;
75894;SDS011;64573;50.328;15.014;2023-04-29T07:10:53;20.42;;;14.00;;
75894;SDS011;64573;50.328;15.014;2023-04-29T07:13:20;19.27;;;13.32;;
75894;SDS011;64573;50.328;15.014;2023-04-29T07:15:45;23.38;;;13.48;;
75894;SDS011;64573;50.328;15.014;2023-04-29T07:18:10;24.05;;;16.77;;
75894;SDS011;64573;50.328;15.014;2023-04-29T07:20:36;18.35;;;13.07;;
75894;SDS011;64573;50.328;15.014;2023-04-29T07:23:01;22.33;;;15.85;;
75894;SDS011;64573;50.328;15.014;2023-04-29T07:25:28;27.73;;;17.02;;
75894;SDS011;64573;50.328;15.014;2023-04-29T07:27:53;20.63;;;15.05;;
75894;SDS011;64573;50.328;15.014;2023-04-29T07:30:19;21.58;;;13.52;;
75894;SDS011;64573;50.328;15.014;2023-04-29T07:32:45;20.73;;;12.75;;
75894;SDS011;64573;50.328;15.014;2023-04-29T07:35:11;20.85;;;13.05;;
75894;SDS011;64573;50.328;15.014;2023-04-29T07:37:36;17.20;;;12.57;;
75894;SDS011;64573;50.328;15.014;2023-04-29T07:40:01;21.60;;;13.15;;
75894;SDS011;64573;50.328;15.014;2023-04-29T07:42:27;19.90;;;13.20;;
75894;SDS011;64573;50.328;15.014;2023-04-29T07:44:52;20.38;;;13.15;;
75894;SDS011;64573;50.328;15.014;2023-04-29T07:47:17;22.48;;;15.02;;
75894;SDS011;64573;50.328;15.014;2023-04-29T07:49:43;20.38;;;14.43;;
75894;SDS011;64573;50.328;15.014;2023-04-29T07:52:08;19.05;;;14.20;;
75894;SDS011;64573;50.328;15.014;2023-04-29T07:54:34;20.75;;;14.60;;
75894;SDS011;64573;50.328;15.014;2023-04-29T07:57:00;21.88;;;14.02;;
75894;SDS011;64573;50.328;15.014;2023-04-29T07:59:27;37.13;;;24.45;;
75894;SDS011;64573;50.328;15.014;2023-04-29T08:01:53;28.33;;;20.45;;
75894;SDS011;64573;50.328;15.014;2023-04-29T08:04:18;22.88;;;16.27;;
75894;SDS011;64573;50.328;15.014;2023-04-29T08:06:43;24.25;;;15.30;;
75894;SDS011;64573;50.328;15.014;2023-04-29T08:09:09;19.02;;;12.82;;
75894;SDS011;64573;50.328;15.014;2023-04-29T08:11:35;16.27;;;12.52;;
75894;SDS011;64573;50.328;15.014;2023-04-29T08:14:00;16.23;;;11.95;;
75894;SDS011;64573;50.328;15.014;2023-04-29T08:16:26;18.10;;;12.98;;
75894;SDS011;64573;50.328;15.014;2023-04-29T08:18:56;23.33;;;14.15;;
75894;SDS011;64573;50.328;15.014;2023-04-29T08:21:22;25.27;;;18.00;;
75894;SDS011;64573;50.328;15.014;2023-04-29T08:23:47;30.77;;;22.15;;
75894;SDS011;64573;50.328;15.014;2023-04-29T08:26:13;19.23;;;14.65;;
75894;SDS011;64573;50.328;15.014;2023-04-29T08:28:38;23.15;;;17.60;;
75894;SDS011;64573;50.328;15.014;2023-04-29T08:31:04;22.10;;;15.18;;
75894;SDS011;64573;50.328;15.014;2023-04-29T08:33:32;19.55;;;15.70;;
75894;SDS011;64573;50.328;15.014;2023-04-29T08:35:58;18.95;;;14.27;;
75894;SDS011;64573;50.328;15.014;2023-04-29T08:38:25;19.65;;;14.38;;
75894;SDS011;64573;50.328;15.014;2023-04-29T08:40:51;18.15;;;13.70;;
75894;SDS011;64573;50.328;15.014;2023-04-29T08:43:17;19.65;;;14.55;;
75894;SDS011;64573;50.328;15.014;2023-04-29T08:45:44;19.70;;;14.93;;
75894;SDS011;64573;50.328;15.014;2023-04-29T08:48:12;20.58;;;15.57;;
75894;SDS011;64573;50.328;15.014;2023-04-29T08:50:40;22.52;;;16.10;;
75894;SDS011;64573;50.328;15.014;2023-04-29T08:53:10;23.80;;;15.80;;
75894;SDS011;64573;50.328;15.014;2023-04-29T08:55:44;20.63;;;14.98;;
75894;SDS011;64573;50.328;15.014;2023-04-29T08:58:11;21.23;;;14.88;;
75894;SDS011;64573;50.328;15.014;2023-04-29T09:00:37;20.90;;;15.25;;
75894;SDS011;64573;50.328;15.014;2023-04-29T09:03:14;21.20;;;14.23;;
75894;SDS011;64573;50.328;15.014;2023-04-29T09:05:47;21.77;;;15.07;;
75894;SDS011;64573;50.328;15.014;2023-04-29T09:08:14;18.90;;;14.80;;
75894;SDS011;64573;50.328;15.014;2023-04-29T09:10:41;19.23;;;15.00;;
75894;SDS011;64573;50.328;15.014;2023-04-29T09:13:06;20.15;;;15.75;;
75894;SDS011;64573;50.328;15.014;2023-04-29T09:15:35;20.80;;;15.77;;
75894;SDS011;64573;50.328;15.014;2023-04-29T09:18:02;21.27;;;16.67;;
75894;SDS011;64573;50.328;15.014;2023-04-29T09:20:28;20.00;;;14.88;;
75894;SDS011;64573;50.328;15.014;2023-04-29T09:22:58;24.60;;;16.33;;
75894;SDS011;64573;50.328;15.014;2023-04-29T09:25:25;18.67;;;14.95;;
75894;SDS011;64573;50.328;15.014;2023-04-29T09:27:51;19.83;;;15.02;;
75894;SDS011;64573;50.328;15.014;2023-04-29T09:30:17;21.25;;;15.45;;
75894;SDS011;64573;50.328;15.014;2023-04-29T09:32:43;19.13;;;14.85;;
75894;SDS011;64573;50.328;15.014;2023-04-29T09:35:26;19.30;;;14.90;;
75894;SDS011;64573;50.328;15.014;2023-04-29T09:37:52;19.80;;;15.18;;
75894;SDS011;64573;50.328;15.014;2023-04-29T09:40:32;19.45;;;14.75;;
75894;SDS011;64573;50.328;15.014;2023-04-29T09:42:58;22.80;;;15.60;;
75894;SDS011;64573;50.328;15.014;2023-04-29T09:45:35;20.80;;;14.30;;
75894;SDS011;64573;50.328;15.014;2023-04-29T09:48:05;18.05;;;14.27;;
75894;SDS011;64573;50.328;15.014;2023-04-29T09:50:32;18.38;;;13.50;;
75894;SDS011;64573;50.328;15.014;2023-04-29T09:52:58;18.85;;;14.40;;
75894;SDS011;64573;50.328;15.014;2023-04-29T09:55:24;17.23;;;13.32;;
75894;SDS011;64573;50.328;15.014;2023-04-29T09:57:53;17.38;;;12.77;;
75894;SDS011;64573;50.328;15.014;2023-04-29T10:00:19;17.85;;;13.57;;
75894;SDS011;64573;50.328;15.014;2023-04-29T10:02:46;17.20;;;14.18;;
75894;SDS011;64573;50.328;15.014;2023-04-29T10:05:13;12.43;;;9.43;;
75894;SDS011;64573;50.328;15.014;2023-04-29T10:07:39;14.65;;;11.40;;
75894;SDS011;64573;50.328;15.014;2023-04-29T10:10:05;16.88;;;12.88;;
75894;SDS011;64573;50.328;15.014;2023-04-29T10:12:32;18.35;;;13.32;;
75894;SDS011;64573;50.328;15.014;2023-04-29T10:17:54;20.00;;;14.65;;
75894;SDS011;64573;50.328;15.014;2023-04-29T10:20:24;16.80;;;13.65;;
75894;SDS011;64573;50.328;15.014;2023-04-29T10:22:51;18.25;;;13.88;;
75894;SDS011;64573;50.328;15.014;2023-04-29T10:25:19;19.08;;;12.68;;
75894;SDS011;64573;50.328;15.014;2023-04-29T10:27:45;17.88;;;13.68;;
75894;SDS011;64573;50.328;15.014;2023-04-29T10:30:13;22.60;;;16.13;;
75894;SDS011;64573;50.328;15.014;2023-04-29T10:32:40;24.23;;;18.10;;
75894;SDS011;64573;50.328;15.014;2023-04-29T10:35:07;27.88;;;20.80;;
75894;SDS011;64573;50.328;15.014;2023-04-29T10:37:37;34.67;;;25.35;;
75894;SDS011;64573;50.328;15.014;2023-04-29T10:42:45;34.47;;;25.23;;
75894;SDS011;64573;50.328;15.014;2023-04-29T10:50:29;23.90;;;17.58;;
75894;SDS011;64573;50.328;15.014;2023-04-29T10:53:09;26.13;;;18.00;;
75894;SDS011;64573;50.328;15.014;2023-04-29T10:55:35;27.23;;;19.00;;
75894;SDS011;64573;50.328;15.014;2023-04-29T10:58:02;24.23;;;17.27;;
75894;SDS011;64573;50.328;15.014;2023-04-29T11:00:29;28.77;;;18.30;;
75894;SDS011;64573;50.328;15.014;2023-04-29T11:02:59;21.52;;;16.88;;
75894;SDS011;64573;50.328;15.014;2023-04-29T11:05:29;13.05;;;8.50;;
75894;SDS011;64573;50.328;15.014;2023-04-29T11:08:32;11.57;;;8.82;;
75894;SDS011;64573;50.328;15.014;2023-04-29T11:10:55;13.88;;;8.85;;
75894;SDS011;64573;50.328;15.014;2023-04-29T11:13:30;8.25;;;6.20;;
75894;SDS011;64573;50.328;15.014;2023-04-29T11:16:03;10.10;;;6.95;;
75894;SDS011;64573;50.328;15.014;2023-04-29T11:18:29;22.17;;;14.73;;
75894;SDS011;64573;50.328;15.014;2023-04-29T11:23:32;16.23;;;10.98;;
75894;SDS011;64573;50.328;15.014;2023-04-29T11:25:59;17.02;;;12.82;;
75894;SDS011;64573;50.328;15.014;2023-04-29T11:28:29;21.02;;;14.93;;
75894;SDS011;64573;50.328;15.014;2023-04-29T11:30:55;19.88;;;14.13;;
75894;SDS011;64573;50.328;15.014;2023-04-29T11:33:22;19.75;;;12.70;;
75894;SDS011;64573;50.328;15.014;2023-04-29T11:35:48;21.33;;;14.05;;
75894;SDS011;64573;50.328;15.014;2023-04-29T11:38:13;23.00;;;15.90;;
75894;SDS011;64573;50.328;15.014;2023-04-29T11:40:48;16.90;;;12.18;;
75894;SDS011;64573;50.328;15.014;2023-04-29T11:43:18;11.98;;;8.90;;
75894;SDS011;64573;50.328;15.014;2023-04-29T11:45:44;13.52;;;10.25;;
75894;SDS011;64573;50.328;15.014;2023-04-29T11:48:23;15.07;;;10.88;;
75894;SDS011;64573;50.328;15.014;2023-04-29T11:50:50;11.93;;;9.23;;
75894;SDS011;64573;50.328;15.014;2023-04-29T11:53:21;12.43;;;9.40;;
75894;SDS011;64573;50.328;15.014;2023-04-29T11:55:49;9.93;;;7.75;;
75894;SDS011;64573;50.328;15.014;2023-04-29T11:58:16;12.35;;;7.15;;
75894;SDS011;64573;50.328;15.014;2023-04-29T12:00:42;7.97;;;6.05;;
75894;SDS011;64573;50.328;15.014;2023-04-29T12:03:12;7.25;;;5.70;;
75894;SDS011;64573;50.328;15.014;2023-04-29T12:05:38;8.50;;;5.72;;
75894;SDS011;64573;50.328;15.014;2023-04-29T12:08:05;6.22;;;5.03;;
75894;SDS011;64573;50.328;15.014;2023-04-29T12:10:34;6.43;;;5.00;;
75894;SDS011;64573;50.328;15.014;2023-04-29T12:13:00;6.32;;;4.70;;
75894;SDS011;64573;50.328;15.014;2023-04-29T12:15:27;7.82;;;5.30;;
75894;SDS011;64573;50.328;15.014;2023-04-29T12:17:54;5.88;;;4.32;;
75894;SDS011;64573;50.328;15.014;2023-04-29T12:20:19;6.70;;;5.57;;
75894;SDS011;64573;50.328;15.014;2023-04-29T12:22:45;7.43;;;5.45;;
75894;SDS011;64573;50.328;15.014;2023-04-29T12:25:11;8.35;;;6.38;;
75894;SDS011;64573;50.328;15.014;2023-04-29T12:27:38;8.50;;;7.18;;
75894;SDS011;64573;50.328;15.014;2023-04-29T12:30:08;10.18;;;7.45;;
75894;SDS011;64573;50.328;15.014;2023-04-29T12:32:34;8.65;;;7.45;;
75894;SDS011;64573;50.328;15.014;2023-04-29T12:35:00;7.65;;;6.00;;
75894;SDS011;64573;50.328;15.014;2023-04-29T12:37:26;6.53;;;5.00;;
75894;SDS011;64573;50.328;15.014;2023-04-29T12:39:53;5.55;;;4.00;;
75894;SDS011;64573;50.328;15.014;2023-04-29T12:42:19;4.82;;;3.50;;
75894;SDS011;64573;50.328;15.014;2023-04-29T12:44:45;4.53;;;2.35;;
75894;SDS011;64573;50.328;15.014;2023-04-29T12:47:13;4.75;;;2.63;;
75894;SDS011;64573;50.328;15.014;2023-04-29T12:49:40;10.20;;;3.20;;
75894;SDS011;64573;50.328;15.014;2023-04-29T12:52:10;3.50;;;3.10;;
75894;SDS011;64573;50.328;15.014;2023-04-29T12:54:36;4.75;;;3.10;;
75894;SDS011;64573;50.328;15.014;2023-04-29T12:57:04;3.03;;;2.72;;
75894;SDS011;64573;50.328;15.014;2023-04-29T12:59:30;3.33;;;2.88;;
75894;SDS011;64573;50.328;15.014;2023-04-29T13:01:56;3.10;;;2.50;;
75894;SDS011;64573;50.328;15.014;2023-04-29T13:04:21;3.30;;;2.97;;
75894;SDS011;64573;50.328;15.014;2023-04-29T13:06:46;4.80;;;2.90;;
75894;SDS011;64573;50.328;15.014;2023-04-29T13:09:12;3.38;;;2.28;;
75894;SDS011;64573;50.328;15.014;2023-04-29T13:11:40;2.30;;;2.10;;
75894;SDS011;64573;50.328;15.014;2023-04-29T13:14:06;2.85;;;2.30;;
75894;SDS011;64573;50.328;15.014;2023-04-29T13:16:32;3.60;;;1.92;;
75894;SDS011;64573;50.328;15.014;2023-04-29T13:18:58;2.28;;;2.08;;
75894;SDS011;64573;50.328;15.014;2023-04-29T13:21:24;3.30;;;2.10;;
75894;SDS011;64573;50.328;15.014;2023-04-29T13:23:49;3.97;;;1.98;;
75894;SDS011;64573;50.328;15.014;2023-04-29T13:26:16;2.65;;;2.20;;
75894;SDS011;64573;50.328;15.014;2023-04-29T13:28:42;3.28;;;2.55;;
75894;SDS011;64573;50.328;15.014;2023-04-29T13:31:07;4.20;;;2.40;;
75894;SDS011;64573;50.328;15.014;2023-04-29T13:33:33;3.28;;;2.20;;
75894;SDS011;64573;50.328;15.014;2023-04-29T13:35:58;3.17;;;2.83;;
75894;SDS011;64573;50.328;15.014;2023-04-29T13:38:23;3.95;;;3.13;;
75894;SDS011;64573;50.328;15.014;2023-04-29T13:40:49;3.38;;;2.70;;
75894;SDS011;64573;50.328;15.014;2023-04-29T13:43:15;4.28;;;2.70;;
75894;SDS011;64573;50.328;15.014;2023-04-29T13:45:41;3.05;;;2.53;;
75894;SDS011;64573;50.328;15.014;2023-04-29T13:48:06;4.63;;;2.88;;
75894;SDS011;64573;50.328;15.014;2023-04-29T13:50:32;6.20;;;3.10;;
75894;SDS011;64573;50.328;15.014;2023-04-29T13:52:57;3.13;;;2.53;;
75894;SDS011;64573;50.328;15.014;2023-04-29T13:55:23;3.88;;;2.90;;
75894;SDS011;64573;50.328;15.014;2023-04-29T13:57:48;3.97;;;3.00;;
75894;SDS011;64573;50.328;15.014;2023-04-29T14:00:14;3.40;;;2.70;;
75894;SDS011;64573;50.328;15.014;2023-04-29T14:02:40;3.88;;;2.97;;
75894;SDS011;64573;50.328;15.014;2023-04-29T14:05:07;4.05;;;2.65;;
75894;SDS011;64573;50.328;15.014;2023-04-29T14:07:33;5.22;;;3.10;;
75894;SDS011;64573;50.328;15.014;2023-04-29T14:09:59;3.92;;;3.20;;
75894;SDS011;64573;50.328;15.014;2023-04-29T14:12:25;3.80;;;3.38;;
75894;SDS011;64573;50.328;15.014;2023-04-29T14:14:50;4.00;;;3.10;;
75894;SDS011;64573;50.328;15.014;2023-04-29T14:17:15;3.88;;;2.53;;
75894;SDS011;64573;50.328;15.014;2023-04-29T14:19:41;6.10;;;2.33;;
75894;SDS011;64573;50.328;15.014;2023-04-29T14:22:06;4.60;;;2.50;;
75894;SDS011;64573;50.328;15.014;2023-04-29T14:24:31;3.33;;;2.35;;
75894;SDS011;64573;50.328;15.014;2023-04-29T14:26:57;3.10;;;2.60;;
75894;SDS011;64573;50.328;15.014;2023-04-29T14:29:23;3.90;;;2.80;;
75894;SDS011;64573;50.328;15.014;2023-04-29T14:31:48;3.70;;;2.65;;
75894;SDS011;64573;50.328;15.014;2023-04-29T14:34:13;4.28;;;2.65;;